Time;durP1;ratioP1;P1;durP2;ratioP2;P2;SDS_P1;SDS_P2;PMS_P1;PMS_P2;Temp;Humidity;BMP_temperature;BMP_pressure;BME280_temperature;BME280_humidity;BME280_pressure;Samples;Min_cycle;Max_cycle;Signal;HPM_P1;HPM_P2
2023/09/08 00:00:53;;;;;;;10.15;7.25;;;;;;;;;;5067598;28;20495;-82
2023/09/08 00:03:21;;;;;;;10.27;7.78;;;;;;;;;;5056843;28;20087;-82
2023/09/08 00:05:47;;;;;;;13.48;8.27;;;;;;;;;;5067210;28;20036;-81
2023/09/08 00:08:13;;;;;;;9.80;7.53;;;;;;;;;;5064443;28;20148;-82
2023/09/08 00:10:39;;;;;;;10.52;7.40;;;;;;;;;;5073050;28;20533;-81
2023/09/08 00:13:05;;;;;;;12.18;8.27;;;;;;;;;;5053286;28;20037;-82
2023/09/08 00:15:34;;;;;;;10.52;7.70;;;;;;;;;;5052928;28;20094;-82
2023/09/08 00:18:00;;;;;;;9.60;7.28;;;;;;;;;;5053045;28;20501;-81
2023/09/08 00:20:26;;;;;;;11.68;7.95;;;;;;;;;;5051875;28;20115;-82
2023/09/08 00:22:52;;;;;;;9.70;8.35;;;;;;;;;;5056994;28;20481;-81
2023/09/08 00:25:19;;;;;;;10.27;7.93;;;;;;;;;;5076531;28;20511;-81
2023/09/08 00:27:45;;;;;;;9.35;7.90;;;;;;;;;;5074951;28;20135;-81
2023/09/08 00:30:12;;;;;;;11.40;7.88;;;;;;;;;;5091343;28;20052;-79
2023/09/08 00:32:38;;;;;;;10.82;8.23;;;;;;;;;;5095174;28;20096;-81
2023/09/08 00:35:06;;;;;;;11.93;8.65;;;;;;;;;;5086864;28;20045;-81
2023/09/08 00:37:32;;;;;;;14.93;7.85;;;;;;;;;;5072835;28;20048;-81
2023/09/08 00:39:58;;;;;;;10.77;8.20;;;;;;;;;;5072042;28;20075;-81
2023/09/08 00:42:24;;;;;;;10.10;8.10;;;;;;;;;;5066153;28;20044;-81
2023/09/08 00:44:50;;;;;;;13.43;8.00;;;;;;;;;;5064202;28;20041;-81
2023/09/08 00:47:17;;;;;;;11.52;8.10;;;;;;;;;;5071257;28;20055;-81
2023/09/08 00:49:43;;;;;;;9.57;7.57;;;;;;;;;;5072092;28;20094;-81
2023/09/08 00:52:09;;;;;;;10.25;7.90;;;;;;;;;;5070236;28;20056;-81
2023/09/08 00:54:35;;;;;;;10.43;8.05;;;;;;;;;;5067840;28;20041;-81
2023/09/08 00:57:03;;;;;;;12.07;8.02;;;;;;;;;;5035215;28;20076;-81
2023/09/08 00:59:30;;;;;;;15.15;7.68;;;;;;;;;;5055003;28;20080;-81
2023/09/08 01:01:56;;;;;;;12.48;7.45;;;;;;;;;;5063944;28;20045;-81
2023/09/08 01:04:22;;;;;;;12.27;7.38;;;;;;;;;;5056883;28;20051;-81
2023/09/08 01:06:48;;;;;;;11.07;7.82;;;;;;;;;;5067064;28;20071;-82
2023/09/08 01:09:15;;;;;;;8.75;7.40;;;;;;;;;;5058560;28;20128;-81
2023/09/08 01:11:41;;;;;;;10.63;7.70;;;;;;;;;;5070081;28;20078;-81
2023/09/08 01:14:08;;;;;;;10.27;7.75;;;;;;;;;;5072173;28;20044;-81
2023/09/08 01:16:34;;;;;;;12.25;8.02;;;;;;;;;;5069637;28;20171;-82
2023/09/08 01:19:00;;;;;;;9.13;7.45;;;;;;;;;;5070178;28;20043;-82
2023/09/08 01:21:45;;;;;;;12.55;7.88;;;;;;;;;;5061279;28;20132;-82
2023/09/08 01:24:24;;;;;;;14.60;7.93;;;;;;;;;;5068528;28;20479;-81
2023/09/08 01:26:50;;;;;;;11.15;7.82;;;;;;;;;;5052311;28;20052;-81
2023/09/08 01:29:17;;;;;;;9.60;7.40;;;;;;;;;;5067092;28;20127;-81
2023/09/08 01:31:43;;;;;;;12.82;7.95;;;;;;;;;;5041677;28;20044;-81
2023/09/08 01:34:09;;;;;;;11.90;7.78;;;;;;;;;;5070634;28;20112;-81
2023/09/08 01:36:36;;;;;;;10.55;7.72;;;;;;;;;;5063101;28;20465;-82
2023/09/08 01:39:02;;;;;;;12.00;7.32;;;;;;;;;;5064945;28;20448;-82
2023/09/08 01:41:30;;;;;;;15.77;8.30;;;;;;;;;;5056099;28;20060;-82
2023/09/08 01:43:57;;;;;;;13.15;8.18;;;;;;;;;;5068978;28;20396;-82
2023/09/08 01:46:23;;;;;;;10.15;7.68;;;;;;;;;;5063408;28;20124;-81
2023/09/08 01:48:49;;;;;;;12.25;8.27;;;;;;;;;;5066876;28;20044;-81
2023/09/08 01:51:15;;;;;;;10.20;7.43;;;;;;;;;;5058082;28;20092;-81
2023/09/08 01:53:42;;;;;;;9.80;8.45;;;;;;;;;;5054646;28;20056;-81
2023/09/08 01:56:09;;;;;;;14.30;8.60;;;;;;;;;;5041297;28;20464;-81
2023/09/08 01:58:35;;;;;;;12.05;8.73;;;;;;;;;;5071535;28;20041;-82
2023/09/08 02:01:05;;;;;;;10.75;8.85;;;;;;;;;;5073225;28;20045;-82
2023/09/08 02:03:32;;;;;;;13.02;9.13;;;;;;;;;;5075807;28;20041;-82
2023/09/08 02:05:58;;;;;;;11.05;8.55;;;;;;;;;;5063701;28;20041;-81
2023/09/08 02:08:24;;;;;;;13.38;9.18;;;;;;;;;;5074176;28;20040;-81
2023/09/08 02:10:50;;;;;;;12.45;9.45;;;;;;;;;;5069071;28;20404;-81
2023/09/08 02:13:16;;;;;;;10.38;8.85;;;;;;;;;;5055237;28;20091;-81
2023/09/08 02:15:42;;;;;;;11.82;9.30;;;;;;;;;;5057671;28;20477;-81
2023/09/08 02:18:09;;;;;;;13.35;9.45;;;;;;;;;;5074735;28;20094;-81
2023/09/08 02:20:35;;;;;;;12.68;8.95;;;;;;;;;;5075248;28;20048;-82
2023/09/08 02:23:05;;;;;;;12.73;8.63;;;;;;;;;;5056257;28;20048;-80
2023/09/08 02:25:31;;;;;;;13.25;9.48;;;;;;;;;;5058288;28;20551;-82
2023/09/08 02:27:57;;;;;;;12.35;9.52;;;;;;;;;;5070014;28;20092;-80
2023/09/08 02:30:23;;;;;;;14.57;9.57;;;;;;;;;;5062733;28;20040;-81
2023/09/08 02:32:49;;;;;;;14.05;9.20;;;;;;;;;;5073237;28;20049;-81
2023/09/08 02:35:15;;;;;;;11.40;8.52;;;;;;;;;;5065278;28;20053;-82
2023/09/08 02:37:41;;;;;;;12.10;8.95;;;;;;;;;;5059634;28;20396;-81
2023/09/08 02:40:08;;;;;;;12.10;9.15;;;;;;;;;;5071091;28;20548;-81
2023/09/08 02:42:34;;;;;;;12.85;8.73;;;;;;;;;;5072366;28;20087;-81
2023/09/08 02:45:00;;;;;;;12.45;9.15;;;;;;;;;;5062546;28;20051;-81
2023/09/08 02:47:26;;;;;;;11.95;9.10;;;;;;;;;;5068741;28;20046;-81
2023/09/08 02:49:52;;;;;;;11.30;9.10;;;;;;;;;;5052314;28;20124;-81
2023/09/08 02:52:19;;;;;;;11.98;9.23;;;;;;;;;;5036121;28;20080;-81
2023/09/08 02:54:45;;;;;;;11.88;8.95;;;;;;;;;;5054136;28;20044;-81
2023/09/08 02:57:11;;;;;;;11.05;9.20;;;;;;;;;;5054536;28;20047;-82
2023/09/08 02:59:37;;;;;;;11.30;9.27;;;;;;;;;;5054147;28;20456;-81
2023/09/08 03:02:03;;;;;;;13.98;9.90;;;;;;;;;;5060970;28;20428;-81
2023/09/08 03:04:30;;;;;;;12.88;9.68;;;;;;;;;;5072425;28;20485;-81
2023/09/08 03:06:56;;;;;;;13.23;9.52;;;;;;;;;;5044070;28;20059;-82
2023/09/08 03:09:25;;;;;;;10.95;9.63;;;;;;;;;;5052245;28;20048;-81
2023/09/08 03:11:51;;;;;;;13.35;9.88;;;;;;;;;;5064718;28;20048;-81
2023/09/08 03:14:17;;;;;;;13.55;10.13;;;;;;;;;;5054812;28;20053;-81
2023/09/08 03:16:43;;;;;;;12.63;9.57;;;;;;;;;;5073870;28;20056;-81
2023/09/08 03:19:09;;;;;;;12.88;9.57;;;;;;;;;;5071992;28;20487;-81
2023/09/08 03:21:35;;;;;;;12.40;9.93;;;;;;;;;;5071245;28;20044;-79
2023/09/08 03:24:01;;;;;;;14.80;11.23;;;;;;;;;;5071989;28;20061;-79
2023/09/08 03:26:27;;;;;;;11.25;9.65;;;;;;;;;;5070702;28;20512;-79
2023/09/08 03:28:53;;;;;;;15.85;10.73;;;;;;;;;;5058429;28;20078;-79
2023/09/08 03:31:19;;;;;;;14.10;10.68;;;;;;;;;;5068428;28;20036;-79
2023/09/08 03:33:45;;;;;;;13.38;10.65;;;;;;;;;;5063356;28;20090;-79
2023/09/08 03:36:11;;;;;;;13.07;10.43;;;;;;;;;;5065565;28;20109;-79
2023/09/08 03:38:37;;;;;;;14.27;10.98;;;;;;;;;;5060024;28;20124;-79
2023/09/08 03:41:04;;;;;;;14.52;10.57;;;;;;;;;;5055232;28;20126;-79
2023/09/08 03:43:33;;;;;;;17.52;11.07;;;;;;;;;;5072443;28;20088;-79
2023/09/08 03:45:59;;;;;;;12.35;10.68;;;;;;;;;;5065032;28;20037;-79
2023/09/08 03:48:25;;;;;;;13.85;10.55;;;;;;;;;;5053043;28;20052;-79
2023/09/08 03:50:51;;;;;;;14.18;10.43;;;;;;;;;;5062326;28;20037;-79
2023/09/08 03:53:17;;;;;;;15.40;10.25;;;;;;;;;;5053171;28;20446;-79
2023/09/08 03:55:43;;;;;;;12.85;10.07;;;;;;;;;;5052868;28;20087;-79
2023/09/08 03:58:09;;;;;;;14.27;10.43;;;;;;;;;;5071781;28;20056;-79
2023/09/08 04:00:35;;;;;;;11.95;10.30;;;;;;;;;;5071157;28;20048;-79
2023/09/08 04:03:01;;;;;;;14.88;9.75;;;;;;;;;;5062635;28;20068;-79
2023/09/08 04:05:27;;;;;;;17.42;10.68;;;;;;;;;;5051184;28;20056;-79
2023/09/08 04:07:53;;;;;;;12.15;10.38;;;;;;;;;;5064782;28;20162;-79
2023/09/08 04:10:19;;;;;;;11.40;10.02;;;;;;;;;;5051576;28;20045;-79
2023/09/08 04:12:45;;;;;;;12.50;10.25;;;;;;;;;;5059782;28;20501;-79
2023/09/08 04:15:12;;;;;;;13.25;9.95;;;;;;;;;;5071497;28;20408;-79
2023/09/08 04:17:38;;;;;;;12.23;9.70;;;;;;;;;;5072692;28;20047;-79
2023/09/08 04:20:05;;;;;;;13.45;9.50;;;;;;;;;;5071755;28;20063;-80
2023/09/08 04:22:31;;;;;;;13.30;10.02;;;;;;;;;;5072510;28;20404;-79
2023/09/08 04:24:57;;;;;;;13.63;10.00;;;;;;;;;;5064869;28;20053;-79
2023/09/08 04:27:24;;;;;;;12.60;10.27;;;;;;;;;;5052768;28;20128;-79
2023/09/08 04:29:50;;;;;;;11.18;9.90;;;;;;;;;;5052633;28;20041;-79
2023/09/08 04:32:16;;;;;;;13.98;11.30;;;;;;;;;;5052628;28;20662;-79
2023/09/08 04:34:42;;;;;;;13.18;11.38;;;;;;;;;;5052036;28;20048;-79
2023/09/08 04:37:08;;;;;;;14.00;10.93;;;;;;;;;;5054492;28;20068;-78
2023/09/08 04:39:36;;;;;;;13.52;10.68;;;;;;;;;;5052930;28;20048;-78
2023/09/08 04:42:03;;;;;;;13.20;10.73;;;;;;;;;;5055007;28;20061;-79
2023/09/08 04:44:29;;;;;;;11.77;10.48;;;;;;;;;;5072648;28;20087;-79
2023/09/08 04:46:55;;;;;;;13.70;10.55;;;;;;;;;;5069904;28;20040;-79
2023/09/08 04:49:21;;;;;;;13.68;10.95;;;;;;;;;;5052494;28;20105;-79
2023/09/08 04:51:47;;;;;;;13.45;10.93;;;;;;;;;;5067900;28;20469;-79
2023/09/08 04:54:13;;;;;;;14.10;10.65;;;;;;;;;;5055022;28;20052;-79
2023/09/08 04:56:40;;;;;;;11.93;10.45;;;;;;;;;;5035995;28;20074;-79
2023/09/08 04:59:06;;;;;;;13.68;11.05;;;;;;;;;;5052610;28;20053;-79
2023/09/08 05:01:33;;;;;;;12.63;10.73;;;;;;;;;;5054652;28;20056;-79
2023/09/08 05:04:02;;;;;;;15.35;11.10;;;;;;;;;;5064385;28;20047;-76
2023/09/08 05:06:28;;;;;;;12.57;10.73;;;;;;;;;;5087692;28;20109;-78
2023/09/08 05:08:54;;;;;;;13.32;11.05;;;;;;;;;;5081941;28;20124;-79
2023/09/08 05:11:20;;;;;;;13.68;10.80;;;;;;;;;;5072824;28;20087;-78
2023/09/08 05:13:47;;;;;;;13.75;10.98;;;;;;;;;;5061218;28;20410;-78
2023/09/08 05:16:13;;;;;;;12.60;10.23;;;;;;;;;;5062244;28;20119;-79
2023/09/08 05:18:39;;;;;;;12.40;10.25;;;;;;;;;;5081759;28;20048;-79
2023/09/08 05:21:06;;;;;;;12.30;10.30;;;;;;;;;;5066444;28;20041;-79
2023/09/08 05:23:32;;;;;;;12.90;10.25;;;;;;;;;;5061868;28;20083;-79
2023/09/08 05:25:58;;;;;;;15.35;10.93;;;;;;;;;;5078701;28;20062;-78
2023/09/08 05:28:24;;;;;;;13.75;10.55;;;;;;;;;;5065433;28;20045;-79
2023/09/08 05:30:53;;;;;;;16.98;10.65;;;;;;;;;;5063870;28;20088;-78
2023/09/08 05:33:20;;;;;;;13.75;10.60;;;;;;;;;;5066498;28;20036;-78
2023/09/08 05:35:47;;;;;;;16.75;10.98;;;;;;;;;;5058243;28;20055;-78
2023/09/08 05:38:13;;;;;;;14.88;11.43;;;;;;;;;;5050281;28;20044;-78
2023/09/08 05:40:39;;;;;;;14.15;11.02;;;;;;;;;;5058256;28;20055;-78
2023/09/08 05:43:05;;;;;;;14.70;11.07;;;;;;;;;;5055018;28;20115;-78
2023/09/08 05:45:34;;;;;;;14.73;10.73;;;;;;;;;;5056758;28;20044;-79
2023/09/08 05:48:00;;;;;;;14.70;11.80;;;;;;;;;;5060466;28;20041;-79
2023/09/08 05:50:27;;;;;;;12.70;11.15;;;;;;;;;;5071841;28;20443;-78
2023/09/08 05:52:53;;;;;;;12.10;10.82;;;;;;;;;;5082519;28;20116;-78
2023/09/08 05:55:19;;;;;;;14.77;10.52;;;;;;;;;;5068992;28;20049;-79
2023/09/08 05:57:45;;;;;;;18.35;11.23;;;;;;;;;;5055909;28;20037;-79
2023/09/08 06:00:12;;;;;;;12.82;11.00;;;;;;;;;;5067016;28;20454;-79
2023/09/08 06:02:38;;;;;;;14.07;10.75;;;;;;;;;;5071567;28;20444;-78
2023/09/08 06:05:04;;;;;;;16.88;10.82;;;;;;;;;;5081703;28;20120;-79
2023/09/08 06:07:31;;;;;;;11.95;10.63;;;;;;;;;;5071275;28;20037;-79
2023/09/08 06:09:57;;;;;;;14.48;10.88;;;;;;;;;;5073145;28;20131;-79
2023/09/08 06:12:23;;;;;;;13.70;10.23;;;;;;;;;;5087451;28;20112;-79
2023/09/08 06:14:52;;;;;;;12.98;10.20;;;;;;;;;;5092468;28;20064;-79
2023/09/08 06:17:18;;;;;;;13.10;10.25;;;;;;;;;;5088924;28;20055;-80
2023/09/08 06:19:44;;;;;;;12.93;10.55;;;;;;;;;;5088532;28;20485;-79
2023/09/08 06:22:10;;;;;;;15.02;10.07;;;;;;;;;;5088044;28;20047;-79
2023/09/08 06:24:36;;;;;;;12.85;10.18;;;;;;;;;;5071674;28;20481;-78
2023/09/08 06:27:02;;;;;;;12.88;10.57;;;;;;;;;;5085179;28;20056;-79
2023/09/08 06:29:28;;;;;;;11.60;10.10;;;;;;;;;;5091260;28;20029;-77
2023/09/08 06:31:57;;;;;;;13.45;10.80;;;;;;;;;;5091901;28;20060;-79
2023/09/08 06:34:26;;;;;;;12.00;10.52;;;;;;;;;;5088873;28;20071;-80
2023/09/08 06:36:52;;;;;;;15.68;9.98;;;;;;;;;;5077739;28;20481;-79
2023/09/08 06:39:18;;;;;;;14.38;9.27;;;;;;;;;;5075592;28;20131;-78
2023/09/08 06:41:45;;;;;;;13.00;8.90;;;;;;;;;;5075717;28;20131;-79
2023/09/08 06:44:11;;;;;;;14.73;9.65;;;;;;;;;;5076183;28;20048;-80
2023/09/08 06:46:37;;;;;;;13.02;9.27;;;;;;;;;;5073630;28;20053;-80
2023/09/08 06:49:03;;;;;;;13.20;10.13;;;;;;;;;;5055036;28;20113;-80
2023/09/08 06:51:29;;;;;;;12.02;9.55;;;;;;;;;;5054455;28;20049;-80
2023/09/08 06:54:02;;;;;;;12.77;8.90;;;;;;;;;;5067739;28;20040;-79
2023/09/08 06:56:29;;;;;;;11.43;9.18;;;;;;;;;;5069305;28;20106;-79
2023/09/08 06:58:57;;;;;;;10.02;7.65;;;;;;;;;;5055640;28;20452;-80
2023/09/08 07:01:23;;;;;;;12.48;9.23;;;;;;;;;;5056175;28;20040;-80
2023/09/08 07:03:49;;;;;;;10.88;8.35;;;;;;;;;;5053859;28;20436;-79
2023/09/08 07:06:16;;;;;;;14.07;8.18;;;;;;;;;;5059631;28;20669;-78
2023/09/08 07:08:42;;;;;;;10.98;8.65;;;;;;;;;;5051774;28;20033;-78
2023/09/08 07:11:08;;;;;;;11.85;8.30;;;;;;;;;;5053384;28;20477;-79
2023/09/08 07:13:34;;;;;;;10.35;8.55;;;;;;;;;;5053318;28;20087;-79
2023/09/08 07:16:00;;;;;;;11.57;7.72;;;;;;;;;;5053187;28;20052;-78
2023/09/08 07:18:27;;;;;;;12.05;7.90;;;;;;;;;;5071823;28;20045;-79
2023/09/08 07:20:53;;;;;;;10.35;8.25;;;;;;;;;;5072858;28;20044;-78
2023/09/08 07:23:19;;;;;;;16.33;8.05;;;;;;;;;;5063103;28;20382;-78
2023/09/08 07:25:48;;;;;;;12.95;7.28;;;;;;;;;;5072407;28;20381;-78
2023/09/08 07:28:15;;;;;;;8.02;6.93;;;;;;;;;;5073173;28;20553;-79
2023/09/08 07:30:41;;;;;;;8.18;6.97;;;;;;;;;;5073478;28;20055;-79
2023/09/08 07:33:07;;;;;;;9.70;7.15;;;;;;;;;;5072793;28;20484;-79
2023/09/08 07:35:36;;;;;;;11.30;6.60;;;;;;;;;;5071902;28;20098;-78
2023/09/08 07:38:03;;;;;;;12.07;6.88;;;;;;;;;;5070786;28;20040;-78
2023/09/08 07:40:29;;;;;;;11.70;6.72;;;;;;;;;;5073301;28;20107;-78
2023/09/08 07:42:55;;;;;;;10.18;7.18;;;;;;;;;;5072857;28;20041;-79
2023/09/08 07:45:21;;;;;;;13.90;6.90;;;;;;;;;;5071716;28;20048;-78
2023/09/08 07:47:47;;;;;;;9.82;6.63;;;;;;;;;;5073142;28;20123;-78
2023/09/08 07:50:18;;;;;;;8.60;6.20;;;;;;;;;;5072877;28;20493;-79
2023/09/08 07:52:44;;;;;;;10.07;5.75;;;;;;;;;;5073575;28;20080;-80
2023/09/08 07:55:10;;;;;;;10.85;6.60;;;;;;;;;;5073499;28;20056;-77
2023/09/08 07:57:36;;;;;;;9.77;5.88;;;;;;;;;;5073110;28;20048;-77
2023/09/08 08:00:02;;;;;;;7.00;6.20;;;;;;;;;;5064041;28;20045;-76
2023/09/08 08:02:30;;;;;;;8.20;5.97;;;;;;;;;;5034835;28;20119;-76
2023/09/08 08:04:56;;;;;;;8.40;5.88;;;;;;;;;;5061953;28;20052;-75
2023/09/08 08:07:22;;;;;;;11.82;6.50;;;;;;;;;;5053626;28;20116;-76
2023/09/08 08:09:48;;;;;;;12.15;6.32;;;;;;;;;;5052229;28;20064;-75
2023/09/08 08:12:14;;;;;;;8.38;6.10;;;;;;;;;;5067911;28;20492;-76
2023/09/08 08:14:40;;;;;;;10.23;6.00;;;;;;;;;;5051866;28;20114;-76
2023/09/08 08:17:06;;;;;;;8.32;6.20;;;;;;;;;;5059351;28;20051;-77
2023/09/08 08:19:32;;;;;;;11.73;5.43;;;;;;;;;;5072268;28;20036;-77
2023/09/08 08:21:58;;;;;;;10.38;5.53;;;;;;;;;;5068725;28;20404;-78
2023/09/08 08:24:24;;;;;;;9.13;5.90;;;;;;;;;;5052607;28;20485;-78
2023/09/08 08:26:51;;;;;;;11.18;5.68;;;;;;;;;;5083519;28;20048;-77
2023/09/08 08:29:17;;;;;;;15.68;6.20;;;;;;;;;;5061556;28;20489;-78
2023/09/08 08:31:44;;;;;;;10.55;5.60;;;;;;;;;;5068259;28;20060;-78
2023/09/08 08:34:10;;;;;;;10.43;5.63;;;;;;;;;;5054384;28;20040;-78
2023/09/08 08:36:36;;;;;;;9.68;5.35;;;;;;;;;;5070794;28;20140;-80
2023/09/08 08:39:02;;;;;;;12.95;6.03;;;;;;;;;;5072115;28;20037;-81
2023/09/08 08:41:29;;;;;;;7.93;4.95;;;;;;;;;;5071310;28;20044;-80
2023/09/08 08:43:56;;;;;;;7.38;4.72;;;;;;;;;;5071912;28;20080;-80
2023/09/08 08:46:23;;;;;;;8.73;4.75;;;;;;;;;;5072216;28;20044;-81
2023/09/08 08:48:49;;;;;;;10.65;5.00;;;;;;;;;;5072353;28;20044;-80
2023/09/08 08:51:17;;;;;;;6.10;4.90;;;;;;;;;;5091585;28;20381;-80
2023/09/08 08:53:44;;;;;;;9.43;4.82;;;;;;;;;;5076061;28;20116;-81
2023/09/08 08:56:11;;;;;;;7.72;4.38;;;;;;;;;;5076445;28;20089;-81
2023/09/08 08:58:40;;;;;;;8.02;4.45;;;;;;;;;;5076092;28;20094;-81
2023/09/08 09:01:06;;;;;;;7.57;4.60;;;;;;;;;;5074852;28;20077;-81
2023/09/08 09:03:34;;;;;;;8.02;4.20;;;;;;;;;;5076989;28;20045;-81
2023/09/08 09:06:01;;;;;;;6.28;4.28;;;;;;;;;;5089143;28;20044;-79
2023/09/08 09:08:27;;;;;;;11.57;4.80;;;;;;;;;;5073100;28;20089;-79
2023/09/08 09:10:53;;;;;;;8.25;4.20;;;;;;;;;;5074509;28;20084;-80
2023/09/08 09:13:19;;;;;;;7.65;3.83;;;;;;;;;;5073441;28;20045;-80
2023/09/08 09:15:46;;;;;;;6.38;4.00;;;;;;;;;;5073738;28;20460;-79
2023/09/08 09:18:13;;;;;;;10.48;4.05;;;;;;;;;;5074051;28;20051;-80
2023/09/08 09:20:41;;;;;;;7.88;4.32;;;;;;;;;;5076979;28;20041;-81
2023/09/08 09:23:07;;;;;;;12.90;4.45;;;;;;;;;;5093734;28;20047;-79
2023/09/08 09:25:33;;;;;;;8.13;4.57;;;;;;;;;;5097692;28;20060;-80
2023/09/08 09:28:00;;;;;;;7.57;4.03;;;;;;;;;;5088311;28;20052;-80
2023/09/08 09:30:27;;;;;;;8.18;3.83;;;;;;;;;;5091875;28;20061;-81
2023/09/08 09:33:00;;;;;;;7.63;4.18;;;;;;;;;;5084755;28;20044;-81
2023/09/08 09:35:42;;;;;;;8.43;3.97;;;;;;;;;;5074725;28;20083;-81
2023/09/08 09:38:09;;;;;;;8.88;4.00;;;;;;;;;;5069349;28;20047;-83
2023/09/08 09:40:35;;;;;;;8.18;3.97;;;;;;;;;;5063027;28;20052;-84
2023/09/08 09:43:01;;;;;;;7.07;4.10;;;;;;;;;;5073935;28;20071;-82
2023/09/08 09:45:27;;;;;;;7.22;4.18;;;;;;;;;;5076226;28;20040;-83
2023/09/08 09:47:53;;;;;;;7.00;3.70;;;;;;;;;;5075441;28;20048;-80
2023/09/08 09:50:29;;;;;;;10.38;4.05;;;;;;;;;;5059645;28;20183;-80
2023/09/08 09:52:58;;;;;;;6.82;3.70;;;;;;;;;;5075569;28;20354;-80
2023/09/08 09:55:24;;;;;;;10.70;3.78;;;;;;;;;;5073828;28;20060;-80
2023/09/08 09:57:52;;;;;;;7.85;4.18;;;;;;;;;;5070789;28;20053;-78
2023/09/08 10:00:19;;;;;;;6.15;3.95;;;;;;;;;;5070945;28;20155;-79
2023/09/08 10:02:45;;;;;;;6.88;4.10;;;;;;;;;;5070818;28;20402;-79
2023/09/08 10:05:12;;;;;;;11.68;4.03;;;;;;;;;;5070649;28;20048;-78
2023/09/08 10:07:40;;;;;;;10.10;3.85;;;;;;;;;;5070567;28;20037;-78
2023/09/08 10:10:06;;;;;;;5.65;3.90;;;;;;;;;;5070417;28;20057;-79
2023/09/08 10:12:35;;;;;;;9.38;3.88;;;;;;;;;;5070213;28;20378;-79
2023/09/08 10:15:04;;;;;;;8.13;3.80;;;;;;;;;;5070453;28;20052;-78
2023/09/08 10:17:31;;;;;;;5.90;3.88;;;;;;;;;;5069809;28;20059;-77
2023/09/08 10:19:57;;;;;;;8.15;3.72;;;;;;;;;;5066617;28;20055;-78
2023/09/08 10:22:26;;;;;;;8.68;4.13;;;;;;;;;;5068763;28;20084;-78
2023/09/08 10:24:54;;;;;;;8.38;3.90;;;;;;;;;;5050903;28;20148;-77
2023/09/08 10:27:23;;;;;;;9.25;3.65;;;;;;;;;;5051565;28;20049;-77
2023/09/08 10:29:50;;;;;;;9.68;4.25;;;;;;;;;;5050904;28;20045;-79
2023/09/08 10:32:17;;;;;;;6.60;3.90;;;;;;;;;;5052898;28;20049;-79
2023/09/08 10:34:44;;;;;;;7.72;3.90;;;;;;;;;;5067961;28;20127;-80
2023/09/08 10:37:20;;;;;;;7.70;3.95;;;;;;;;;;5065516;28;20045;-80
2023/09/08 10:39:46;;;;;;;5.78;3.80;;;;;;;;;;5069664;28;20075;-80
2023/09/08 10:42:22;;;;;;;5.75;3.95;;;;;;;;;;5055921;28;20055;-80
2023/09/08 10:44:48;;;;;;;6.45;4.22;;;;;;;;;;5065273;28;20079;-81
2023/09/08 10:47:15;;;;;;;7.30;3.83;;;;;;;;;;5065278;28;20076;-81
2023/09/08 10:49:41;;;;;;;6.15;4.10;;;;;;;;;;5052867;28;20059;-81
2023/09/08 10:52:11;;;;;;;9.90;4.00;;;;;;;;;;5067564;28;20056;-80
2023/09/08 10:54:44;;;;;;;7.63;4.10;;;;;;;;;;5062423;28;20064;-81
2023/09/08 10:57:17;;;;;;;5.00;3.80;;;;;;;;;;5073461;28;20052;-81
2023/09/08 10:59:56;;;;;;;8.95;3.95;;;;;;;;;;5071123;28;20336;-81
2023/09/08 11:02:41;;;;;;;8.75;3.78;;;;;;;;;;5073499;28;20381;-80
2023/09/08 11:05:09;;;;;;;8.07;3.60;;;;;;;;;;5072515;28;20053;-80
2023/09/08 11:07:38;;;;;;;8.05;3.72;;;;;;;;;;5063913;28;20177;-82
2023/09/08 11:10:04;;;;;;;8.02;3.95;;;;;;;;;;5061279;28;20436;-82
2023/09/08 11:12:31;;;;;;;6.88;3.80;;;;;;;;;;5055253;28;20052;-82
2023/09/08 11:15:00;;;;;;;6.68;3.80;;;;;;;;;;5060157;28;20504;-82
2023/09/08 11:17:27;;;;;;;11.60;4.57;;;;;;;;;;5054223;28;20133;-83
2023/09/08 11:19:55;;;;;;;6.20;3.70;;;;;;;;;;5070485;28;20049;-83
2023/09/08 11:22:23;;;;;;;5.80;3.58;;;;;;;;;;5069557;28;20538;-83
2023/09/08 11:24:50;;;;;;;9.50;4.00;;;;;;;;;;5053187;28;20086;-83
2023/09/08 11:27:16;;;;;;;10.45;3.80;;;;;;;;;;5052532;28;20048;-82
2023/09/08 11:29:42;;;;;;;18.10;4.45;;;;;;;;;;5069729;28;20103;-83
2023/09/08 11:32:09;;;;;;;8.48;3.65;;;;;;;;;;5069369;28;20400;-83
2023/09/08 11:34:35;;;;;;;5.47;3.55;;;;;;;;;;5067917;28;20048;-83
2023/09/08 11:37:08;;;;;;;6.88;4.15;;;;;;;;;;5052580;28;20178;-83
2023/09/08 11:39:38;;;;;;;7.07;3.80;;;;;;;;;;5051155;28;20041;-82
2023/09/08 11:42:04;;;;;;;6.88;3.88;;;;;;;;;;5069338;28;20067;-83
2023/09/08 11:44:31;;;;;;;5.82;3.60;;;;;;;;;;5068750;28;20045;-83
2023/09/08 11:46:57;;;;;;;8.65;3.83;;;;;;;;;;5069596;28;20077;-83
2023/09/08 11:49:23;;;;;;;5.50;3.72;;;;;;;;;;5065651;28;20045;-82
2023/09/08 11:51:50;;;;;;;6.22;3.70;;;;;;;;;;5049161;28;20388;-83
2023/09/08 11:54:16;;;;;;;7.13;3.92;;;;;;;;;;5048672;28;20402;-81
2023/09/08 11:56:45;;;;;;;6.82;4.10;;;;;;;;;;5049942;28;20084;-80
2023/09/08 11:59:12;;;;;;;7.53;4.00;;;;;;;;;;5048300;28;20395;-81
2023/09/08 12:01:38;;;;;;;7.85;3.80;;;;;;;;;;5049687;28;20382;-81
2023/09/08 12:04:04;;;;;;;6.47;3.80;;;;;;;;;;5052523;28;20545;-80
2023/09/08 12:06:30;;;;;;;7.80;4.03;;;;;;;;;;5056898;28;20048;-81
2023/09/08 12:08:59;;;;;;;11.27;3.60;;;;;;;;;;5059032;28;20175;-81
2023/09/08 12:11:25;;;;;;;5.93;3.80;;;;;;;;;;5049551;28;20131;-81
2023/09/08 12:13:51;;;;;;;8.00;3.90;;;;;;;;;;5064228;28;20099;-80
2023/09/08 12:16:22;;;;;;;6.00;3.63;;;;;;;;;;5064450;28;20091;-81
2023/09/08 12:18:50;;;;;;;9.80;3.92;;;;;;;;;;5049977;28;20127;-81
2023/09/08 12:21:16;;;;;;;7.72;3.50;;;;;;;;;;5065092;28;20057;-81
2023/09/08 12:23:49;;;;;;;7.28;3.30;;;;;;;;;;5058640;28;20507;-82
2023/09/08 12:26:19;;;;;;;6.10;3.80;;;;;;;;;;5067760;28;20060;-82
2023/09/08 12:28:45;;;;;;;9.75;3.30;;;;;;;;;;5068489;28;20401;-82
2023/09/08 12:31:13;;;;;;;7.45;3.95;;;;;;;;;;5069123;28;20101;-82
2023/09/08 12:33:39;;;;;;;7.32;3.60;;;;;;;;;;5065812;28;20445;-82
2023/09/08 12:36:31;;;;;;;7.63;3.70;;;;;;;;;;5065229;28;20052;-82
2023/09/08 12:38:57;;;;;;;11.35;3.95;;;;;;;;;;5065040;28;20052;-82
2023/09/08 12:41:23;;;;;;;5.90;3.63;;;;;;;;;;5069412;28;20048;-83
2023/09/08 12:43:49;;;;;;;6.90;4.05;;;;;;;;;;5069124;28;20037;-82
2023/09/08 12:46:18;;;;;;;4.65;3.35;;;;;;;;;;5067209;28;20040;-82
2023/09/08 12:48:44;;;;;;;7.15;3.65;;;;;;;;;;5051078;28;20134;-82
2023/09/08 12:51:10;;;;;;;6.72;3.80;;;;;;;;;;5055299;28;20512;-82
2023/09/08 12:53:36;;;;;;;7.88;3.67;;;;;;;;;;5047955;28;20056;-81
2023/09/08 12:56:02;;;;;;;9.35;3.88;;;;;;;;;;5054296;28;20043;-81
2023/09/08 12:58:28;;;;;;;8.77;3.63;;;;;;;;;;5057103;28;20132;-81
2023/09/08 13:00:54;;;;;;;10.75;3.80;;;;;;;;;;5060951;28;20048;-81
2023/09/08 13:03:21;;;;;;;9.10;3.58;;;;;;;;;;5069046;28;20048;-81
2023/09/08 13:05:47;;;;;;;5.93;3.42;;;;;;;;;;5068821;28;20456;-80
2023/09/08 13:08:15;;;;;;;5.15;3.53;;;;;;;;;;5067508;28;20465;-81
2023/09/08 13:10:41;;;;;;;8.40;3.75;;;;;;;;;;5067760;28;20059;-82
2023/09/08 13:13:07;;;;;;;8.55;3.45;;;;;;;;;;5065604;28;20123;-82
2023/09/08 13:15:33;;;;;;;9.52;3.80;;;;;;;;;;5059432;28;20044;-82
2023/09/08 13:17:59;;;;;;;6.72;3.63;;;;;;;;;;5066507;28;20155;-82
2023/09/08 13:20:25;;;;;;;6.50;3.65;;;;;;;;;;5084550;28;20453;-81
2023/09/08 13:22:51;;;;;;;6.38;3.70;;;;;;;;;;5056613;28;20045;-81
2023/09/08 13:25:17;;;;;;;6.95;3.38;;;;;;;;;;5057588;28;20126;-81
2023/09/08 13:27:43;;;;;;;7.75;3.70;;;;;;;;;;5046206;28;20045;-81
2023/09/08 13:30:10;;;;;;;7.55;3.50;;;;;;;;;;5069041;28;20127;-81
2023/09/08 13:32:36;;;;;;;6.18;3.67;;;;;;;;;;5067441;28;20183;-81
2023/09/08 13:35:02;;;;;;;6.93;3.45;;;;;;;;;;5068703;28;20435;-81
2023/09/08 13:37:30;;;;;;;6.35;3.83;;;;;;;;;;5072765;28;20190;-82
2023/09/08 13:39:56;;;;;;;6.32;3.47;;;;;;;;;;5072701;28;20044;-81
2023/09/08 13:42:22;;;;;;;8.23;3.40;;;;;;;;;;5071461;28;20052;-81
2023/09/08 13:44:49;;;;;;;8.05;3.90;;;;;;;;;;5071262;28;20052;-82
2023/09/08 13:47:15;;;;;;;4.95;3.50;;;;;;;;;;5070786;28;20066;-82
2023/09/08 13:49:41;;;;;;;8.65;3.35;;;;;;;;;;5070200;28;20037;-82
2023/09/08 13:52:07;;;;;;;7.07;3.50;;;;;;;;;;5093198;28;20096;-81
2023/09/08 13:54:34;;;;;;;7.53;3.60;;;;;;;;;;5093018;28;20511;-81
2023/09/08 13:57:03;;;;;;;5.50;3.70;;;;;;;;;;5082134;28;20424;-80
2023/09/08 13:59:30;;;;;;;5.30;3.40;;;;;;;;;;5066690;28;20051;-80
2023/09/08 14:01:57;;;;;;;6.53;3.55;;;;;;;;;;5052784;28;20080;-81
2023/09/08 14:04:23;;;;;;;5.22;3.58;;;;;;;;;;5051291;28;20464;-81
2023/09/08 14:06:52;;;;;;;7.80;3.80;;;;;;;;;;5052784;28;20049;-81
2023/09/08 14:09:19;;;;;;;7.68;3.55;;;;;;;;;;5052029;28;20513;-81
2023/09/08 14:11:45;;;;;;;4.88;3.22;;;;;;;;;;5052440;28;20091;-81
2023/09/08 14:14:11;;;;;;;7.68;3.92;;;;;;;;;;5050744;28;20052;-81
2023/09/08 14:16:37;;;;;;;5.97;3.60;;;;;;;;;;5052258;28;20064;-80
2023/09/08 14:19:03;;;;;;;7.05;3.38;;;;;;;;;;5051842;28;20128;-80
2023/09/08 14:21:29;;;;;;;6.93;3.33;;;;;;;;;;5050770;28;20057;-80
2023/09/08 14:23:55;;;;;;;7.40;3.50;;;;;;;;;;5051531;28;20466;-81
2023/09/08 14:26:21;;;;;;;7.38;3.85;;;;;;;;;;5052991;28;20088;-81
2023/09/08 14:28:47;;;;;;;5.50;3.13;;;;;;;;;;5062313;28;20052;-81
2023/09/08 14:31:13;;;;;;;5.78;3.40;;;;;;;;;;5033643;28;20056;-81